Time;durP1;ratioP1;P1;durP2;ratioP2;P2;SDS_P1;SDS_P2;PMS_P1;PMS_P2;Temp;Humidity;BMP_temperature;BMP_pressure;BME280_temperature;BME280_humidity;BME280_pressure;Samples;Min_cycle;Max_cycle;Signal;HPM_P1;HPM_P2
2022/02/02 00:00:12;;;;;;;57.03;8.20;;;9.00;99.90;;;;;;5066903;28;20187;-72
2022/02/02 00:02:50;;;;;;;55.30;7.55;;;9.00;99.90;;;;;;5051712;28;20623;-72
2022/02/02 00:08:28;;;;;;;63.75;7.03;;;9.00;99.90;;;;;;5068912;28;20975;-72
2022/02/02 00:13:34;;;;;;;63.30;7.90;;;9.00;99.90;;;;;;5068387;28;20182;-72
2022/02/02 00:15:59;;;;;;;69.90;8.00;;;9.00;99.90;;;;;;5047740;28;20540;-72
2022/02/02 00:18:49;;;;;;;58.47;7.43;;;8.90;99.90;;;;;;5049496;28;20241;-72
2022/02/02 00:21:24;;;;;;;66.65;8.55;;;8.90;99.90;;;;;;5067801;28;20182;-72
2022/02/02 00:23:55;;;;;;;61.85;8.38;;;8.90;99.90;;;;;;5068759;28;20216;-73
2022/02/02 00:26:28;;;;;;;54.67;8.15;;;8.90;99.90;;;;;;5068117;28;20612;-72
2022/02/02 00:28:59;;;;;;;60.25;7.97;;;8.90;99.90;;;;;;5051578;28;20265;-71
2022/02/02 00:31:31;;;;;;;60.80;8.07;;;8.90;99.90;;;;;;5035599;28;20217;-72
2022/02/02 00:34:02;;;;;;;45.83;7.50;;;8.90;99.90;;;;;;5071026;28;20621;-72
2022/02/02 00:36:36;;;;;;;77.32;8.50;;;8.80;99.90;;;;;;5070667;28;20308;-71
2022/02/02 00:39:03;;;;;;;56.53;8.20;;;8.80;99.90;;;;;;5072634;28;20194;-72
2022/02/02 00:41:28;;;;;;;56.83;6.75;;;8.80;99.90;;;;;;5037765;28;20190;-72
2022/02/02 00:43:59;;;;;;;59.15;8.02;;;8.70;99.90;;;;;;5071469;28;20204;-72
2022/02/02 00:46:27;;;;;;;55.83;7.05;;;8.70;99.90;;;;;;5071147;28;20191;-72
2022/02/02 00:48:59;;;;;;;58.00;7.85;;;8.70;99.90;;;;;;5072609;28;20183;-72
2022/02/02 00:51:29;;;;;;;63.28;8.50;;;8.70;99.90;;;;;;5053048;28;20179;-72
2022/02/02 00:53:54;;;;;;;63.83;7.95;;;8.60;99.90;;;;;;5052136;28;20191;-73
2022/02/02 00:56:20;;;;;;;60.05;8.25;;;8.60;99.90;;;;;;5053072;28;20190;-72
2022/02/02 00:58:45;;;;;;;58.03;7.90;;;8.60;99.90;;;;;;5054737;28;20193;-72
2022/02/02 01:01:11;;;;;;;62.33;8.43;;;8.60;99.90;;;;;;5071063;28;20183;-72
2022/02/02 01:03:37;;;;;;;55.67;7.35;;;8.60;99.90;;;;;;5072195;28;20210;-71
2022/02/02 01:06:04;;;;;;;68.47;8.70;;;8.60;99.90;;;;;;5071145;28;20190;-72
2022/02/02 01:13:48;;;;;;;64.72;8.10;;;8.50;99.90;;;;;;5053438;28;20663;-71
2022/02/02 01:18:35;;;;;;;58.42;7.53;;;8.50;99.90;;;;;;5072614;28;20232;-72
2022/02/02 01:21:05;;;;;;;62.15;9.25;;;8.50;99.90;;;;;;5052718;28;20665;-72
2022/02/02 01:29:02;;;;;;;56.33;7.38;;;8.50;99.90;;;;;;5083744;28;20207;-73
2022/02/02 01:31:28;;;;;;;66.53;8.35;;;8.50;99.90;;;;;;5053146;28;20213;-73
2022/02/02 01:33:53;;;;;;;60.75;9.02;;;8.50;99.90;;;;;;5052361;28;20431;-73
2022/02/02 01:36:20;;;;;;;60.90;9.35;;;8.80;99.90;;;;;;5049766;28;20245;-73
2022/02/02 01:38:47;;;;;;;63.75;8.88;;;8.80;99.90;;;;;;5050827;28;20174;-72
2022/02/02 01:41:22;;;;;;;67.00;8.23;;;8.70;99.90;;;;;;5050595;28;20244;-72
2022/02/02 01:43:57;;;;;;;72.03;9.18;;;8.60;99.90;;;;;;5051856;28;20281;-72
2022/02/02 01:46:24;;;;;;;67.68;8.88;;;8.50;99.90;;;;;;5050008;28;20517;-72
2022/02/02 01:49:00;;;;;;;63.22;8.40;;;8.60;99.90;;;;;;5050727;28;20191;-72
2022/02/02 01:51:45;;;;;;;62.60;7.95;;;8.60;99.90;;;;;;5047623;28;20187;-73
2022/02/02 01:54:29;;;;;;;58.47;8.02;;;8.60;99.90;;;;;;5050251;28;20241;-73
2022/02/02 01:56:57;;;;;;;65.13;7.75;;;8.60;99.90;;;;;;5051771;28;20230;-72
2022/02/02 01:59:56;;;;;;;64.22;8.98;;;8.60;99.90;;;;;;5051168;28;20229;-73
2022/02/02 02:02:15;;;;;;;55.45;8.38;;;8.60;99.90;;;;;;5048535;28;20247;-72
2022/02/02 02:04:45;;;;;;;61.33;8.93;;;8.60;99.90;;;;;;5050350;28;20214;-71
2022/02/02 02:07:11;;;;;;;59.70;8.00;;;8.60;99.90;;;;;;5049476;28;20187;-71
2022/02/02 02:09:37;;;;;;;64.40;8.32;;;8.60;99.90;;;;;;5048602;28;20187;-72
2022/02/02 02:12:08;;;;;;;68.05;8.45;;;8.70;99.90;;;;;;5050239;28;20182;-71
2022/02/02 02:14:54;;;;;;;67.13;7.90;;;8.70;99.90;;;;;;5031988;28;20198;-71
2022/02/02 02:17:22;;;;;;;51.45;7.50;;;8.70;99.90;;;;;;5050645;28;20652;-71
2022/02/02 02:19:50;;;;;;;58.63;8.70;;;8.70;99.90;;;;;;5048904;28;20298;-72
2022/02/02 02:22:20;;;;;;;64.43;7.97;;;8.70;99.90;;;;;;5049780;28;20199;-71
2022/02/02 02:24:46;;;;;;;60.15;8.15;;;8.70;99.90;;;;;;5048577;28;20221;-71
2022/02/02 02:27:15;;;;;;;50.65;8.15;;;8.70;99.90;;;;;;5048261;28;20183;-73
2022/02/02 02:30:04;;;;;;;57.88;8.23;;;8.70;99.90;;;;;;5049903;28;20203;-71
2022/02/02 02:35:29;;;;;;;;;;;;;;;;;;;;;
2022/02/02 02:37:49;;;;;;;61.50;8.00;;;8.70;99.90;;;;;;5063325;28;20229;-72
2022/02/02 02:56:24;;;;;;;70.78;9.50;;;9.40;99.90;;;;;;5067677;28;20222;-73
2022/02/02 02:59:04;;;;;;;57.97;8.40;;;9.20;99.90;;;;;;5051939;28;20697;-73
2022/02/02 03:56:29;;;;;;;65.68;8.50;;;8.70;99.90;;;;;;5067059;28;20190;-74
2022/02/02 03:58:49;;;;;;;57.85;7.40;;;8.70;99.90;;;;;;5067353;28;20194;-73
2022/02/02 04:02:05;;;;;;;65.55;7.80;;;8.70;99.90;;;;;;5068624;28;20186;-73
2022/02/02 04:07:00;;;;;;;59.67;7.65;;;8.70;99.90;;;;;;5067642;28;20666;-71
2022/02/02 04:09:27;;;;;;;61.35;7.45;;;8.70;99.90;;;;;;5067046;28;20201;-73
2022/02/02 04:12:04;;;;;;;57.28;7.80;;;8.70;99.90;;;;;;5068789;28;20228;-71
2022/02/02 04:17:41;;;;;;;54.63;6.75;;;8.70;99.90;;;;;;5066966;28;20544;-71
2022/02/02 04:55:39;;;;;;;65.05;8.80;;;8.70;99.90;;;;;;5081127;28;20183;-74
2022/02/02 04:58:17;;;;;;;47.45;6.95;;;8.70;99.90;;;;;;5066605;28;20190;-71
2022/02/02 05:06:18;;;;;;;50.80;6.47;;;8.70;99.90;;;;;;5066627;28;20217;-72
2022/02/02 05:08:58;;;;;;;50.42;7.25;;;8.70;99.90;;;;;;5049756;28;20265;-72
2022/02/02 05:41:19;;;;;;;59.90;7.97;;;8.70;99.90;;;;;;5068316;28;20610;-71
2022/02/02 05:49:10;;;;;;;62.90;7.50;;;8.60;99.90;;;;;;5051721;28;20643;-72
2022/02/02 05:51:49;;;;;;;60.83;7.85;;;8.60;99.90;;;;;;5067134;28;20190;-74
2022/02/02 05:54:15;;;;;;;52.40;6.88;;;8.60;99.90;;;;;;5051133;28;20210;-72
2022/02/02 05:56:49;;;;;;;59.55;7.35;;;8.70;99.90;;;;;;5049739;28;20915;-71
2022/02/02 05:59:20;;;;;;;58.63;7.32;;;8.70;99.90;;;;;;5068549;28;20186;-72
2022/02/02 06:01:55;;;;;;;61.05;7.97;;;8.70;99.90;;;;;;5065979;28;20187;-71
2022/02/02 06:04:26;;;;;;;56.53;6.35;;;8.70;99.90;;;;;;5065430;28;22600;-71
2022/02/02 06:06:54;;;;;;;59.53;7.60;;;8.70;99.90;;;;;;5069570;28;20183;-71
2022/02/02 06:09:22;;;;;;;56.35;7.65;;;8.60;99.90;;;;;;5070428;28;20266;-72
2022/02/02 06:11:53;;;;;;;63.25;8.50;;;8.60;99.90;;;;;;5070331;28;20209;-71
2022/02/02 06:14:21;;;;;;;62.88;7.63;;;8.60;99.90;;;;;;5069992;28;20201;-73
2022/02/02 06:16:47;;;;;;;48.58;7.55;;;8.50;99.90;;;;;;5067567;28;20186;-74
2022/02/02 06:19:13;;;;;;;60.00;7.50;;;8.50;99.90;;;;;;5070251;28;20190;-73
2022/02/02 06:21:38;;;;;;;58.42;7.70;;;8.50;99.90;;;;;;5069843;28;20244;-73
2022/02/02 06:24:10;;;;;;;65.93;8.60;;;8.50;99.90;;;;;;5051237;28;20202;-74
2022/02/02 06:26:38;;;;;;;58.72;7.32;;;8.50;99.90;;;;;;5068778;28;20190;-73
2022/02/02 06:29:10;;;;;;;51.67;6.88;;;8.50;99.90;;;;;;5052041;28;20205;-74
2022/02/02 06:31:38;;;;;;;63.17;8.55;;;8.50;99.90;;;;;;5067830;28;20187;-73
2022/02/02 06:34:07;;;;;;;63.08;8.10;;;8.50;99.90;;;;;;5069651;28;20654;-72
2022/02/02 06:36:36;;;;;;;51.83;7.20;;;8.50;99.90;;;;;;5070151;28;21000;-71
2022/02/02 06:39:03;;;;;;;55.05;7.70;;;8.50;99.90;;;;;;5067141;28;20183;-72
2022/02/02 06:41:29;;;;;;;63.40;8.48;;;8.50;99.90;;;;;;5067942;28;20515;-74
2022/02/02 06:43:55;;;;;;;74.88;7.97;;;8.50;99.90;;;;;;5051620;28;20209;-74
2022/02/02 06:46:27;;;;;;;54.08;7.03;;;8.50;99.90;;;;;;5051716;28;20639;-75
2022/02/02 06:48:53;;;;;;;57.78;8.15;;;8.50;99.90;;;;;;5052507;28;20186;-74
2022/02/02 06:51:37;;;;;;;59.30;8.07;;;8.40;99.90;;;;;;5050644;28;20186;-75
2022/02/02 06:54:12;;;;;;;70.72;7.78;;;8.40;99.90;;;;;;5068598;28;20199;-75
2022/02/02 06:56:48;;;;;;;53.33;7.03;;;8.40;99.90;;;;;;5067815;28;20311;-76
2022/02/02 07:07:51;;;;;;;59.03;7.80;;;8.30;99.90;;;;;;5069838;28;20190;-76
2022/02/02 07:10:43;;;;;;;64.25;7.07;;;8.30;99.90;;;;;;5069657;28;20190;-75
2022/02/02 07:18:33;;;;;;;68.93;8.52;;;8.20;99.90;;;;;;5049922;28;20956;-75
2022/02/02 07:29:29;;;;;;;61.78;6.78;;;8.20;99.90;;;;;;5021987;28;20199;-77
2022/02/02 07:35:00;;;;;;;44.97;6.95;;;8.20;99.90;;;;;;5066616;28;20187;-73
2022/02/02 07:37:34;;;;;;;61.28;7.55;;;8.20;99.90;;;;;;5069117;28;20242;-75
2022/02/02 07:40:04;;;;;;;82.32;10.75;;;8.20;99.90;;;;;;5066497;28;20205;-75
2022/02/02 07:42:31;;;;;;;53.85;7.25;;;8.20;99.90;;;;;;5050507;28;20183;-73
2022/02/02 07:45:10;;;;;;;69.43;7.68;;;8.20;99.90;;;;;;5050755;28;20614;-76
2022/02/02 07:47:49;;;;;;;65.10;7.50;;;8.20;99.90;;;;;;5068492;28;20261;-75
2022/02/02 07:50:15;;;;;;;74.28;8.43;;;8.20;99.90;;;;;;5069370;28;20182;-76
2022/02/02 07:52:43;;;;;;;67.95;7.47;;;8.20;99.90;;;;;;5051317;28;20557;-74
2022/02/02 07:55:12;;;;;;;61.95;8.05;;;8.20;99.90;;;;;;5068153;28;20560;-74
2022/02/02 07:57:40;;;;;;;67.75;7.45;;;8.20;99.90;;;;;;5069604;28;20261;-73
2022/02/02 08:00:13;;;;;;;65.07;7.55;;;8.20;99.90;;;;;;5034616;28;20213;-74
2022/02/02 08:05:09;;;;;;;67.57;7.72;;;8.30;99.90;;;;;;5065573;28;20191;-72
2022/02/02 08:07:41;;;;;;;67.78;6.95;;;8.30;99.90;;;;;;5064721;28;20187;-75
2022/02/02 08:10:15;;;;;;;65.63;8.30;;;8.40;99.90;;;;;;5063620;28;20206;-76
2022/02/02 08:12:45;;;;;;;61.17;7.78;;;8.40;99.90;;;;;;5049848;28;20540;-73
2022/02/02 08:15:12;;;;;;;69.30;8.30;;;8.50;99.90;;;;;;5063810;28;20290;-74
2022/02/02 08:17:39;;;;;;;66.93;7.88;;;8.50;99.90;;;;;;5068761;28;20669;-73
2022/02/02 08:20:06;;;;;;;59.42;7.40;;;8.50;99.90;;;;;;5049482;28;20666;-73
2022/02/02 08:22:32;;;;;;;60.03;7.00;;;8.60;99.90;;;;;;5068002;28;20269;-74
2022/02/02 08:24:58;;;;;;;71.25;7.07;;;8.60;99.90;;;;;;5068579;28;20300;-72
2022/02/02 08:27:24;;;;;;;52.17;7.40;;;8.70;99.90;;;;;;5068262;28;20221;-72
2022/02/02 08:29:49;;;;;;;53.50;7.70;;;8.90;99.90;;;;;;5067004;28;20873;-76
2022/02/02 08:32:15;;;;;;;55.50;7.75;;;9.70;99.90;;;;;;5049936;28;20249;-73
2022/02/02 08:34:47;;;;;;;58.30;8.25;;;9.80;99.90;;;;;;5049471;28;20411;-76
2022/02/02 08:37:12;;;;;;;59.22;8.27;;;10.40;99.90;;;;;;5065499;28;20451;-72
2022/02/02 08:40:00;;;;;;;56.20;7.18;;;10.90;99.90;;;;;;5050443;28;20752;-72
2022/02/02 08:42:30;;;;;;;51.83;6.75;;;10.60;99.90;;;;;;5066427;28;20194;-73
2022/02/02 08:45:18;;;;;;;47.28;6.47;;;10.40;99.90;;;;;;5063277;28;20214;-72
2022/02/02 08:47:49;;;;;;;49.53;7.65;;;10.20;99.90;;;;;;5068166;28;20187;-75
2022/02/02 08:50:15;;;;;;;50.28;6.60;;;10.10;99.90;;;;;;5049166;28;20206;-73
2022/02/02 08:52:52;;;;;;;54.45;6.43;;;10.00;99.90;;;;;;5067035;28;20595;-71
2022/02/02 08:55:21;;;;;;;;;;;10.10;99.90;;;;;;5069403;28;20036;-72
2022/02/02 08:58:07;;;;;;;;;;;10.30;99.90;;;;;;5052854;28;19982;-71
2022/02/02 09:00:35;;;;;;;47.80;7.50;;;10.40;99.90;;;;;;5068050;28;20249;-71
2022/02/02 09:05:45;;;;;;;46.60;8.02;;;12.30;99.90;;;;;;5068134;28;20553;-70
2022/02/02 09:08:10;;;;;;;48.23;7.10;;;13.80;99.90;;;;;;5070457;28;20966;-71
2022/02/02 09:22:28;;;;;;;37.45;6.50;;;18.50;89.10;;;;;;5069517;28;20449;-75
2022/02/02 09:24:25;;;;;;;37.90;6.70;;;19.20;83.10;;;;;;5070243;28;20451;-71
2022/02/02 09:35:06;;;;;;;40.95;6.82;;;18.80;79.00;;;;;;5069188;28;20446;-75
2022/02/02 09:37:32;;;;;;;40.95;6.85;;;18.60;78.80;;;;;;5070856;28;20419;-74
2022/02/02 09:40:10;;;;;;;38.87;6.33;;;18.40;79.20;;;;;;5069390;28;20452;-73
2022/02/02 09:42:36;;;;;;;43.40;8.27;;;18.00;80.70;;;;;;5071000;28;20395;-72
2022/02/02 09:45:08;;;;;;;38.05;7.35;;;17.80;82.10;;;;;;5069024;28;20446;-71
2022/02/02 09:47:42;;;;;;;38.47;6.80;;;18.20;82.60;;;;;;5050453;28;20414;-71
2022/02/02 09:50:19;;;;;;;34.47;6.27;;;19.00;79.30;;;;;;5050818;28;20419;-72
2022/02/02 09:52:53;;;;;;;37.60;6.22;;;19.70;74.40;;;;;;5068775;28;20430;-71
2022/02/02 09:55:41;;;;;;;30.77;6.10;;;19.80;72.60;;;;;;5067734;28;20415;-70
2022/02/02 10:00:45;;;;;;;34.40;6.60;;;19.40;73.00;;;;;;5068866;28;20423;-70
2022/02/02 10:03:34;;;;;;;;;;;;;;;;;;;;;
2022/02/02 10:06:14;;;;;;;36.72;6.15;;;18.60;76.40;;;;;;5067633;28;20469;-73
2022/02/02 10:11:53;;;;;;;31.23;5.80;;;17.40;82.20;;;;;;5069435;28;20447;-72
2022/02/02 10:14:26;;;;;;;38.93;6.43;;;17.10;84.00;;;;;;5052321;28;20521;-70
2022/02/02 10:16:51;;;;;;;31.90;6.22;;;16.70;86.30;;;;;;5069103;28;20447;-71
2022/02/02 10:19:20;;;;;;;40.10;6.10;;;16.30;88.20;;;;;;5051987;28;20432;-71
2022/02/02 10:21:46;;;;;;;32.88;5.97;;;16.20;89.60;;;;;;5068557;28;20407;-73
2022/02/02 10:24:12;;;;;;;31.95;5.68;;;16.10;89.90;;;;;;5069778;28;20538;-71
2022/02/02 10:26:50;;;;;;;35.53;6.00;;;16.00;91.00;;;;;;5052190;28;20441;-72
2022/02/02 10:29:17;;;;;;;35.90;5.82;;;16.50;90.70;;;;;;5068966;28;20476;-73
2022/02/02 10:31:48;;;;;;;27.20;5.30;;;17.00;89.00;;;;;;5068831;28;20415;-73
2022/02/02 10:34:19;;;;;;;35.40;6.00;;;17.30;86.30;;;;;;5051690;28;20429;-71
2022/02/02 10:37:05;;;;;;;30.48;5.28;;;17.60;85.90;;;;;;5068448;28;20427;-73
2022/02/02 10:39:48;;;;;;;29.55;6.07;;;17.80;84.00;;;;;;5068370;28;20946;-76
2022/02/02 10:42:40;;;;;;;32.53;4.85;;;17.70;83.50;;;;;;5069222;28;20419;-74
2022/02/02 10:45:17;;;;;;;29.33;5.32;;;17.40;84.80;;;;;;5066519;28;20430;-72
2022/02/02 10:47:43;;;;;;;30.33;4.57;;;16.90;86.80;;;;;;5067533;28;20415;-72
2022/02/02 10:50:28;;;;;;;30.65;4.93;;;16.60;88.50;;;;;;5050610;28;20415;-76
2022/02/02 10:56:29;;;;;;;28.77;4.55;;;16.10;90.40;;;;;;5033496;28;20479;-72
2022/02/02 11:06:49;;;;;;;31.30;4.88;;;15.50;92.90;;;;;;5068300;28;20417;-72
2022/02/02 11:09:17;;;;;;;25.08;4.35;;;15.60;92.60;;;;;;5069420;28;20498;-74
2022/02/02 11:11:45;;;;;;;26.20;4.13;;;15.90;92.60;;;;;;5067429;28;20418;-73
2022/02/02 11:14:40;;;;;;;25.33;4.68;;;16.30;91.20;;;;;;5051411;28;20407;-72
2022/02/02 11:17:10;;;;;;;21.23;4.17;;;16.50;90.50;;;;;;5083834;28;20476;-73
2022/02/02 11:19:38;;;;;;;26.17;4.22;;;16.50;90.50;;;;;;5066979;28;20411;-72
2022/02/02 11:22:31;;;;;;;28.23;4.53;;;16.30;90.80;;;;;;5068834;28;20787;-74
2022/02/02 11:25:02;;;;;;;28.73;4.60;;;16.20;90.90;;;;;;5068031;28;20427;-72
2022/02/02 11:27:40;;;;;;;24.33;4.13;;;16.10;91.20;;;;;;5050988;28;20815;-74
2022/02/02 11:30:27;;;;;;;29.23;4.47;;;16.00;91.40;;;;;;5064744;28;20432;-74
2022/02/02 11:33:21;;;;;;;27.08;4.65;;;16.00;91.60;;;;;;5049907;28;20415;-70
2022/02/02 11:35:50;;;;;;;26.73;4.53;;;16.10;91.30;;;;;;5066696;28;20546;-70
2022/02/02 11:38:34;;;;;;;22.80;4.30;;;16.20;91.20;;;;;;5067470;28;20828;-74
2022/02/02 11:44:09;;;;;;;27.27;4.10;;;16.20;90.80;;;;;;5068214;28;20507;-72
2022/02/02 11:47:08;;;;;;;25.13;4.30;;;16.40;90.60;;;;;;5067287;28;20416;-71
2022/02/02 11:50:08;;;;;;;23.67;3.75;;;16.80;90.30;;;;;;5067688;28;20888;-74
2022/02/02 11:52:43;;;;;;;24.83;4.00;;;17.40;87.50;;;;;;5047257;28;20406;-74
2022/02/02 11:55:12;;;;;;;24.33;4.20;;;17.70;85.20;;;;;;5067451;28;20407;-73
2022/02/02 11:58:20;;;;;;;24.83;4.22;;;17.80;84.80;;;;;;5069506;28;20745;-70
2022/02/02 12:04:07;;;;;;;25.55;4.15;;;17.70;83.60;;;;;;5066903;28;20423;-73
2022/02/02 12:09:28;;;;;;;25.65;4.38;;;17.50;85.30;;;;;;5050848;28;20471;-72
2022/02/02 12:21:19;;;;;;;22.60;4.28;;;17.70;82.40;;;;;;5067739;28;20500;-73
2022/02/02 12:49:06;;;;;;;22.03;4.47;;;19.60;73.40;;;;;;5025448;28;20442;-72
2022/02/02 12:56:57;;;;;;;23.42;4.78;;;20.50;68.60;;;;;;5069934;28;21292;-73
2022/02/02 12:59:42;;;;;;;22.45;4.45;;;20.70;68.40;;;;;;5070354;28;20407;-72
2022/02/02 13:02:12;;;;;;;28.58;5.15;;;20.70;67.70;;;;;;5070055;28;20469;-73
2022/02/02 13:04:39;;;;;;;24.98;4.72;;;20.80;65.80;;;;;;5068111;28;20514;-73
2022/02/02 13:07:11;;;;;;;25.77;4.95;;;20.60;66.00;;;;;;5071034;28;20404;-72
2022/02/02 13:09:37;;;;;;;25.13;4.30;;;20.50;66.70;;;;;;5069969;28;20486;-74
2022/02/02 13:12:34;;;;;;;23.73;4.45;;;20.20;66.70;;;;;;5052071;28;20446;-71
2022/02/02 13:18:00;;;;;;;26.58;4.35;;;19.50;69.30;;;;;;5070111;28;20415;-71
2022/02/02 13:21:28;;;;;;;25.48;4.65;;;19.30;71.40;;;;;;5068507;28;20494;-70
2022/02/02 13:26:40;;;;;;;27.17;4.47;;;19.70;69.80;;;;;;5069257;28;20894;-70
2022/02/02 13:29:19;;;;;;;20.85;4.18;;;20.00;69.60;;;;;;5068935;28;20431;-71
2022/02/02 13:32:04;;;;;;;24.38;4.35;;;20.30;68.80;;;;;;5035380;28;20927;-72
2022/02/02 13:34:58;;;;;;;20.10;4.20;;;20.40;67.50;;;;;;5068731;28;20431;-71
2022/02/02 13:37:53;;;;;;;25.02;4.55;;;20.40;66.30;;;;;;5069733;28;20419;-72
2022/02/02 13:45:51;;;;;;;23.67;4.72;;;19.70;68.20;;;;;;5069937;28;20411;-74
2022/02/02 13:51:09;;;;;;;26.05;4.50;;;19.30;70.40;;;;;;5051742;28;20514;-71
2022/02/02 13:59:04;;;;;;;23.45;4.72;;;18.70;72.60;;;;;;5083514;28;20415;-72
2022/02/02 14:01:49;;;;;;;25.80;4.82;;;18.40;73.20;;;;;;5065162;28;20887;-72
2022/02/02 14:06:52;;;;;;;31.58;6.55;;;17.60;76.80;;;;;;5066044;28;20412;-71
2022/02/02 14:09:32;;;;;;;28.15;6.82;;;17.40;78.30;;;;;;5049686;28;20430;-72
2022/02/02 14:33:29;;;;;;;25.80;4.60;;;15.90;85.30;;;;;;5051527;28;20950;-73
2022/02/02 14:35:59;;;;;;;26.50;4.22;;;15.70;86.90;;;;;;5049830;28;20435;-72
2022/02/02 14:38:26;;;;;;;24.17;4.63;;;15.60;87.70;;;;;;5051865;28;20396;-76
2022/02/02 14:43:24;;;;;;;26.73;4.73;;;15.20;90.20;;;;;;5069020;28;20444;-75
2022/02/02 14:45:54;;;;;;;28.05;4.80;;;15.10;90.80;;;;;;5049929;28;20418;-73
2022/02/02 14:54:09;;;;;;;19.70;3.80;;;14.70;92.00;;;;;;5068699;28;20411;-73
2022/02/02 15:08:46;;;;;;;21.88;4.18;;;14.00;94.10;;;;;;5068265;28;20411;-71
2022/02/02 15:24:05;;;;;;;18.00;3.42;;;13.60;96.80;;;;;;5068950;28;20420;-71
2022/02/02 15:31:43;;;;;;;18.23;3.53;;;13.60;96.90;;;;;;5064298;28;20415;-73
2022/02/02 15:34:14;;;;;;;16.00;3.80;;;13.50;97.00;;;;;;5067664;28;20425;-74
2022/02/02 15:39:22;;;;;;;15.00;3.42;;;13.40;97.50;;;;;;5067166;28;20415;-74
2022/02/02 15:42:41;;;;;;;22.10;4.00;;;13.30;97.60;;;;;;5062752;28;20420;-73
2022/02/02 15:56:16;;;;;;;14.88;3.15;;;13.40;98.40;;;;;;5048850;28;20812;-72
2022/02/02 15:58:22;;;;;;;15.43;3.13;;;13.40;98.60;;;;;;5067417;28;20403;-73
2022/02/02 16:03:38;;;;;;;14.40;2.90;;;13.40;98.60;;;;;;5049085;28;20411;-74
2022/02/02 16:06:21;;;;;;;14.27;3.55;;;13.40;98.80;;;;;;5067797;28;20903;-73
2022/02/02 16:08:50;;;;;;;16.13;3.70;;;13.30;98.90;;;;;;5067566;28;20456;-73
2022/02/02 16:11:25;;;;;;;14.43;3.13;;;13.20;99.20;;;;;;5066801;28;20464;-71
2022/02/02 16:13:56;;;;;;;12.25;3.00;;;13.20;99.10;;;;;;5066164;28;20880;-72
2022/02/02 16:18:54;;;;;;;11.55;2.80;;;13.20;99.40;;;;;;5067581;28;20408;-73
2022/02/02 16:35:38;;;;;;;11.63;3.25;;;12.90;99.90;;;;;;5065177;28;20503;-76
2022/02/02 16:38:07;;;;;;;10.98;3.22;;;12.90;99.90;;;;;;5065153;28;20411;-72
2022/02/02 16:40:35;;;;;;;13.40;3.58;;;12.90;99.90;;;;;;5048581;28;20802;-74
2022/02/02 16:43:14;;;;;;;10.13;3.17;;;12.80;99.90;;;;;;5062909;28;20417;-73
2022/02/02 16:45:52;;;;;;;11.70;3.55;;;12.80;99.90;;;;;;5063354;28;20411;-71
2022/02/02 16:48:19;;;;;;;12.52;4.38;;;12.80;99.90;;;;;;5065411;28;20430;-74
2022/02/02 16:50:49;;;;;;;14.52;4.90;;;12.70;99.90;;;;;;5064148;28;20767;-74
2022/02/02 16:56:16;;;;;;;15.20;5.20;;;12.50;99.90;;;;;;5046898;28;20442;-72
2022/02/02 17:30:58;;;;;;;11.80;3.65;;;12.10;99.90;;;;;;5047291;28;20423;-72
2022/02/02 17:33:33;;;;;;;15.93;3.78;;;12.10;99.90;;;;;;5067675;28;20483;-76
2022/02/02 17:38:44;;;;;;;14.87;3.80;;;12.00;99.90;;;;;;5067635;28;20395;-73
2022/02/02 18:15:09;;;;;;;13.50;6.20;;;11.40;99.90;;;;;;5066678;28;20457;-73
2022/02/02 18:19:15;;;;;;;12.07;6.35;;;11.40;99.90;;;;;;5065072;28;20427;-73
2022/02/02 18:21:41;;;;;;;15.67;7.07;;;11.30;99.90;;;;;;5062473;28;20435;-72
2022/02/02 18:27:01;;;;;;;16.67;8.70;;;11.30;99.90;;;;;;5061225;28;20405;-72
2022/02/02 18:29:32;;;;;;;17.67;9.27;;;11.30;99.90;;;;;;5046771;28;20444;-71
2022/02/02 18:35:02;;;;;;;19.05;9.48;;;11.20;99.90;;;;;;4990202;28;20464;-72
2022/02/02 18:38:23;;;;;;;23.83;10.27;;;11.20;99.90;;;;;;5052826;28;20438;-73
2022/02/02 18:48:57;;;;;;;19.58;8.85;;;11.20;99.90;;;;;;5067031;28;20182;-72
2022/02/02 18:54:17;;;;;;;22.13;9.48;;;10.60;99.90;;;;;;5067175;28;20186;-71
2022/02/02 18:57:12;;;;;;;20.15;9.98;;;10.40;99.90;;;;;;5067532;28;20667;-72
2022/02/02 19:00:09;;;;;;;25.38;10.23;;;10.20;99.90;;;;;;5067575;28;20273;-72
2022/02/02 19:07:59;;;;;;;23.00;10.07;;;10.00;99.90;;;;;;5067674;28;20813;-72
2022/02/02 19:38:41;;;;;;;40.53;18.55;;;9.90;99.90;;;;;;5065799;28;20228;-71
2022/02/02 19:55:17;;;;;;;43.05;19.55;;;9.90;99.90;;;;;;5065367;28;20197;-72
2022/02/02 20:01:45;;;;;;;46.10;18.88;;;9.90;99.90;;;;;;5046399;28;20336;-72
2022/02/02 20:03:27;;;;;;;47.53;18.20;;;9.90;99.90;;;;;;5066622;28;20263;-73
2022/02/02 20:06:03;;;;;;;42.05;17.98;;;9.80;99.90;;;;;;5065594;28;20202;-71
2022/02/02 20:08:46;;;;;;;43.65;17.90;;;9.80;99.90;;;;;;5065985;28;20190;-71
2022/02/02 20:11:21;;;;;;;49.17;19.35;;;9.80;99.90;;;;;;5048542;28;20194;-71
2022/02/02 20:13:47;;;;;;;44.92;18.83;;;9.80;99.90;;;;;;5066114;28;20201;-71
2022/02/02 20:16:12;;;;;;;49.35;18.42;;;9.70;99.90;;;;;;5066455;28;20221;-70
2022/02/02 20:18:42;;;;;;;46.63;18.02;;;9.80;99.90;;;;;;5066703;28;20722;-70
2022/02/02 20:21:10;;;;;;;51.75;18.63;;;9.70;99.90;;;;;;5041864;28;20586;-71
2022/02/02 20:23:42;;;;;;;45.05;17.65;;;9.70;99.90;;;;;;5048863;28;20671;-72
2022/02/02 20:26:10;;;;;;;47.75;18.25;;;9.70;99.90;;;;;;5067149;28;20196;-70
2022/02/02 20:28:35;;;;;;;51.50;17.42;;;9.70;99.90;;;;;;5065116;28;20263;-71
2022/02/02 20:31:01;;;;;;;46.05;16.63;;;9.70;99.90;;;;;;5046537;28;20937;-71
2022/02/02 20:33:27;;;;;;;47.28;16.95;;;9.70;99.90;;;;;;5047345;28;20587;-72
2022/02/02 20:35:54;;;;;;;43.83;17.80;;;9.70;99.90;;;;;;5047425;28;20190;-72
2022/02/02 20:38:20;;;;;;;50.85;16.98;;;9.70;99.90;;;;;;5043305;28;20226;-69
2022/02/02 20:40:47;;;;;;;49.15;17.27;;;9.70;99.90;;;;;;5044204;28;20183;-70
2022/02/02 20:43:24;;;;;;;47.53;17.38;;;9.70;99.90;;;;;;5044519;28;20646;-73
2022/02/02 21:10:24;;;;;;;37.17;13.57;;;10.20;99.90;;;;;;5048162;28;21050;-70
2022/02/02 21:15:37;;;;;;;35.83;12.80;;;9.90;99.90;;;;;;5049479;28;20209;-69
2022/02/02 21:18:08;;;;;;;36.72;14.52;;;9.80;99.90;;;;;;5048326;28;20179;-68
2022/02/02 21:20:43;;;;;;;29.75;12.05;;;9.80;99.90;;;;;;5047735;28;20179;-69
2022/02/02 21:23:26;;;;;;;28.63;12.27;;;9.70;99.90;;;;;;5049420;28;20190;-69
2022/02/02 21:28:33;;;;;;;36.65;12.13;;;9.70;99.90;;;;;;5045044;28;20274;-70
2022/02/02 21:30:59;;;;;;;27.38;11.15;;;9.60;99.90;;;;;;5047986;28;20190;-72
2022/02/02 21:33:25;;;;;;;29.92;11.27;;;9.60;99.90;;;;;;5048476;28;20179;-71
2022/02/02 21:35:51;;;;;;;25.40;11.40;;;9.60;99.90;;;;;;5050802;28;20278;-71
2022/02/02 21:38:30;;;;;;;29.45;11.75;;;9.60;99.90;;;;;;5068501;28;20290;-71
2022/02/02 21:40:58;;;;;;;25.45;10.77;;;9.60;99.90;;;;;;5069958;28;20232;-72
2022/02/02 21:43:25;;;;;;;28.40;11.97;;;9.60;99.90;;;;;;5070498;28;20441;-72
2022/02/02 21:45:52;;;;;;;24.98;11.20;;;10.00;99.90;;;;;;5069384;28;20815;-70
2022/02/02 21:48:18;;;;;;;26.67;10.75;;;10.30;99.90;;;;;;5069372;28;20465;-73
2022/02/02 21:50:56;;;;;;;26.13;10.93;;;10.50;99.90;;;;;;5068172;28;20411;-70
2022/02/02 21:53:22;;;;;;;22.48;9.02;;;10.60;99.90;;;;;;5065297;28;20190;-71
2022/02/02 21:55:47;;;;;;;21.33;9.07;;;10.30;99.90;;;;;;5068098;28;20190;-73
2022/02/02 21:58:13;;;;;;;27.48;10.73;;;10.00;99.90;;;;;;5051607;28;20772;-71
2022/02/02 22:00:40;;;;;;;20.33;9.23;;;10.30;99.90;;;;;;5069230;28;20473;-72
2022/02/02 22:03:07;;;;;;;22.42;9.07;;;10.60;99.90;;;;;;5084783;28;20908;-73
2022/02/02 22:05:36;;;;;;;19.83;9.00;;;10.70;99.90;;;;;;5051115;28;20507;-73
2022/02/02 22:08:06;;;;;;;22.77;8.05;;;10.80;99.90;;;;;;5052654;28;20266;-71
2022/02/02 22:10:32;;;;;;;15.30;6.20;;;10.50;99.90;;;;;;5069886;28;20212;-71
2022/02/02 22:12:57;;;;;;;24.88;7.10;;;10.20;99.90;;;;;;5070724;28;20178;-72
2022/02/02 22:15:28;;;;;;;17.67;6.50;;;10.00;99.90;;;;;;5070472;28;20281;-73
2022/02/02 22:17:53;;;;;;;16.80;6.88;;;9.90;99.90;;;;;;5069682;28;20198;-74
2022/02/02 22:20:19;;;;;;;20.95;7.18;;;9.80;99.90;;;;;;5070382;28;20665;-71
2022/02/02 22:22:47;;;;;;;17.40;7.85;;;9.70;99.90;;;;;;5070100;28;20508;-70
2022/02/02 22:25:14;;;;;;;17.83;8.55;;;9.60;99.90;;;;;;5070287;28;20619;-72
2022/02/02 22:27:40;;;;;;;21.20;8.32;;;9.60;99.90;;;;;;5070753;28;20179;-73
2022/02/02 22:30:07;;;;;;;29.00;8.52;;;9.60;99.90;;;;;;5067516;28;20193;-72
2022/02/02 22:32:33;;;;;;;21.63;8.73;;;9.50;99.90;;;;;;5070330;28;20256;-71
2022/02/02 22:34:59;;;;;;;23.20;9.00;;;9.50;99.90;;;;;;5069478;28;20190;-71
2022/02/02 22:37:25;;;;;;;19.23;7.53;;;9.50;99.90;;;;;;5069991;28;20572;-72
2022/02/02 22:39:52;;;;;;;19.83;6.93;;;9.50;99.90;;;;;;5069917;28;20219;-73
2022/02/02 22:42:21;;;;;;;20.80;6.55;;;9.50;99.90;;;;;;5070180;28;20191;-73
2022/02/02 22:44:47;;;;;;;31.02;7.95;;;9.50;99.90;;;;;;5067827;28;20213;-72